sensor_id;sensor_type;location;lat;lon;timestamp;temperature;humidity
8103;DHT22;4094;49.948;11.574;2024-03-02T00:00:19;9.30;76.30
8103;DHT22;4094;49.948;11.574;2024-03-02T00:03:10;9.30;76.30
8103;DHT22;4094;49.948;11.574;2024-03-02T00:06:02;9.40;76.40
8103;DHT22;4094;49.948;11.574;2024-03-02T00:08:58;9.30;76.30
8103;DHT22;4094;49.948;11.574;2024-03-02T00:11:47;9.30;76.30
8103;DHT22;4094;49.948;11.574;2024-03-02T00:14:38;9.30;76.10
8103;DHT22;4094;49.948;11.574;2024-03-02T00:17:27;9.30;76.00
8103;DHT22;4094;49.948;11.574;2024-03-02T00:20:18;9.30;75.90
8103;DHT22;4094;49.948;11.574;2024-03-02T00:23:17;9.30;76.00
8103;DHT22;4094;49.948;11.574;2024-03-02T00:26:11;9.30;76.10
8103;DHT22;4094;49.948;11.574;2024-03-02T00:29:01;9.30;76.10
8103;DHT22;4094;49.948;11.574;2024-03-02T00:31:52;9.30;76.00
8103;DHT22;4094;49.948;11.574;2024-03-02T00:34:43;9.30;76.10
8103;DHT22;4094;49.948;11.574;2024-03-02T00:37:32;9.20;75.90
8103;DHT22;4094;49.948;11.574;2024-03-02T00:40:21;9.20;75.90
8103;DHT22;4094;49.948;11.574;2024-03-02T00:46:23;9.20;76.00
8103;DHT22;4094;49.948;11.574;2024-03-02T00:49:18;9.20;76.00
8103;DHT22;4094;49.948;11.574;2024-03-02T00:52:10;9.20;76.20
8103;DHT22;4094;49.948;11.574;2024-03-02T00:54:59;9.20;76.30
8103;DHT22;4094;49.948;11.574;2024-03-02T00:57:48;9.20;76.40
8103;DHT22;4094;49.948;11.574;2024-03-02T01:00:38;9.30;76.70
8103;DHT22;4094;49.948;11.574;2024-03-02T01:03:27;9.30;76.80
8103;DHT22;4094;49.948;11.574;2024-03-02T01:06:19;9.30;76.80
8103;DHT22;4094;49.948;11.574;2024-03-02T01:09:08;9.30;77.00
8103;DHT22;4094;49.948;11.574;2024-03-02T01:11:58;9.30;76.90
8103;DHT22;4094;49.948;11.574;2024-03-02T01:14:47;9.40;77.00
8103;DHT22;4094;49.948;11.574;2024-03-02T01:17:36;9.40;77.70
8103;DHT22;4094;49.948;11.574;2024-03-02T01:20:26;9.40;77.00
8103;DHT22;4094;49.948;11.574;2024-03-02T01:23:18;9.40;77.80
8103;DHT22;4094;49.948;11.574;2024-03-02T01:26:07;9.40;77.00
8103;DHT22;4094;49.948;11.574;2024-03-02T01:28:57;9.40;77.00
8103;DHT22;4094;49.948;11.574;2024-03-02T01:31:46;9.50;77.10
8103;DHT22;4094;49.948;11.574;2024-03-02T01:34:35;9.50;77.00
8103;DHT22;4094;49.948;11.574;2024-03-02T01:37:25;9.50;77.00
8103;DHT22;4094;49.948;11.574;2024-03-02T01:40:16;9.60;77.10
8103;DHT22;4094;49.948;11.574;2024-03-02T01:43:08;9.50;77.10
8103;DHT22;4094;49.948;11.574;2024-03-02T01:45:58;9.50;77.10
8103;DHT22;4094;49.948;11.574;2024-03-02T01:48:47;9.50;77.00
8103;DHT22;4094;49.948;11.574;2024-03-02T01:51:36;9.60;77.10
8103;DHT22;4094;49.948;11.574;2024-03-02T01:54:26;9.60;77.10
8103;DHT22;4094;49.948;11.574;2024-03-02T01:57:17;9.60;77.10
8103;DHT22;4094;49.948;11.574;2024-03-02T02:00:08;9.60;77.10
8103;DHT22;4094;49.948;11.574;2024-03-02T02:03:00;9.60;77.10
8103;DHT22;4094;49.948;11.574;2024-03-02T02:05:50;9.60;77.10
8103;DHT22;4094;49.948;11.574;2024-03-02T02:08:39;9.60;77.10
8103;DHT22;4094;49.948;11.574;2024-03-02T02:11:28;9.60;77.20
8103;DHT22;4094;49.948;11.574;2024-03-02T02:14:19;9.60;77.10
8103;DHT22;4094;49.948;11.574;2024-03-02T02:17:08;9.60;77.30
8103;DHT22;4094;49.948;11.574;2024-03-02T02:19:57;9.60;77.30
8103;DHT22;4094;49.948;11.574;2024-03-02T02:22:56;9.60;77.30
8103;DHT22;4094;49.948;11.574;2024-03-02T02:25:45;9.60;77.40
8103;DHT22;4094;49.948;11.574;2024-03-02T02:28:34;9.60;77.30
8103;DHT22;4094;49.948;11.574;2024-03-02T02:31:23;9.60;77.30
8103;DHT22;4094;49.948;11.574;2024-03-02T02:34:14;9.60;77.40
8103;DHT22;4094;49.948;11.574;2024-03-02T02:37:03;9.60;77.40
8103;DHT22;4094;49.948;11.574;2024-03-02T02:39:54;9.60;77.40
8103;DHT22;4094;49.948;11.574;2024-03-02T02:42:43;9.60;77.40
8103;DHT22;4094;49.948;11.574;2024-03-02T02:45:32;9.60;77.40
8103;DHT22;4094;49.948;11.574;2024-03-02T02:48:21;9.60;77.40
8103;DHT22;4094;49.948;11.574;2024-03-02T02:51:10;9.60;77.40
8103;DHT22;4094;49.948;11.574;2024-03-02T02:53:59;9.60;77.40
8103;DHT22;4094;49.948;11.574;2024-03-02T02:56:50;9.60;77.40
8103;DHT22;4094;49.948;11.574;2024-03-02T02:59:39;9.60;77.60
8103;DHT22;4094;49.948;11.574;2024-03-02T03:02:28;9.60;77.70
8103;DHT22;4094;49.948;11.574;2024-03-02T03:05:18;9.60;77.70
8103;DHT22;4094;49.948;11.574;2024-03-02T03:08:07;9.60;77.70
8103;DHT22;4094;49.948;11.574;2024-03-02T03:10:56;9.60;77.90
8103;DHT22;4094;49.948;11.574;2024-03-02T03:13:47;9.60;77.90
8103;DHT22;4094;49.948;11.574;2024-03-02T03:16:36;9.60;78.10
8103;DHT22;4094;49.948;11.574;2024-03-02T03:19:25;9.70;78.20
8103;DHT22;4094;49.948;11.574;2024-03-02T03:22:15;9.60;78.20
8103;DHT22;4094;49.948;11.574;2024-03-02T03:25:04;9.70;78.20
8103;DHT22;4094;49.948;11.574;2024-03-02T03:27:55;9.70;78.30
8103;DHT22;4094;49.948;11.574;2024-03-02T03:30:46;9.70;78.40
8103;DHT22;4094;49.948;11.574;2024-03-02T03:33:35;9.70;78.40
8103;DHT22;4094;49.948;11.574;2024-03-02T03:36:25;9.70;78.50
8103;DHT22;4094;49.948;11.574;2024-03-02T03:39:14;9.70;78.40
8103;DHT22;4094;49.948;11.574;2024-03-02T03:42:03;9.70;78.50
8103;DHT22;4094;49.948;11.574;2024-03-02T03:44:53;9.70;78.60
8103;DHT22;4094;49.948;11.574;2024-03-02T03:47:44;9.70;78.60
8103;DHT22;4094;49.948;11.574;2024-03-02T03:50:33;9.70;78.70
8103;DHT22;4094;49.948;11.574;2024-03-02T03:53:22;9.70;78.80
8103;DHT22;4094;49.948;11.574;2024-03-02T03:56:12;9.70;78.80
8103;DHT22;4094;49.948;11.574;2024-03-02T03:59:01;9.60;78.80
8103;DHT22;4094;49.948;11.574;2024-03-02T04:01:50;9.70;78.90
8103;DHT22;4094;49.948;11.574;2024-03-02T04:04:41;9.70;79.00
8103;DHT22;4094;49.948;11.574;2024-03-02T04:07:31;9.60;79.00
8103;DHT22;4094;49.948;11.574;2024-03-02T04:10:20;9.60;79.00
8103;DHT22;4094;49.948;11.574;2024-03-02T04:13:10;9.60;79.00
8103;DHT22;4094;49.948;11.574;2024-03-02T04:15:59;9.60;79.10
8103;DHT22;4094;49.948;11.574;2024-03-02T04:18:48;9.60;79.20
8103;DHT22;4094;49.948;11.574;2024-03-02T04:21:39;9.60;79.30
8103;DHT22;4094;49.948;11.574;2024-03-02T04:24:28;9.70;79.40
8103;DHT22;4094;49.948;11.574;2024-03-02T04:27:18;9.60;79.40
8103;DHT22;4094;49.948;11.574;2024-03-02T04:30:07;9.70;79.40
8103;DHT22;4094;49.948;11.574;2024-03-02T04:32:57;9.70;79.40
8103;DHT22;4094;49.948;11.574;2024-03-02T04:35:46;9.70;79.40
8103;DHT22;4094;49.948;11.574;2024-03-02T04:38:37;9.70;79.40
8103;DHT22;4094;49.948;11.574;2024-03-02T04:41:26;9.70;79.50
8103;DHT22;4094;49.948;11.574;2024-03-02T04:44:15;9.70;79.50
8103;DHT22;4094;49.948;11.574;2024-03-02T04:47:04;9.70;79.40
8103;DHT22;4094;49.948;11.574;2024-03-02T04:49:53;9.70;79.50
8103;DHT22;4094;49.948;11.574;2024-03-02T04:52:43;9.70;79.50
8103;DHT22;4094;49.948;11.574;2024-03-02T04:55:33;9.70;79.50
8103;DHT22;4094;49.948;11.574;2024-03-02T04:58:58;9.70;79.50
8103;DHT22;4094;49.948;11.574;2024-03-02T05:01:47;9.70;79.50
8103;DHT22;4094;49.948;11.574;2024-03-02T05:04:36;9.70;79.40
8103;DHT22;4094;49.948;11.574;2024-03-02T05:07:25;9.70;79.50
8103;DHT22;4094;49.948;11.574;2024-03-02T05:10:14;9.70;79.50
8103;DHT22;4094;49.948;11.574;2024-03-02T05:13:05;9.70;79.40
8103;DHT22;4094;49.948;11.574;2024-03-02T05:15:56;9.80;79.50
8103;DHT22;4094;49.948;11.574;2024-03-02T05:18:47;9.80;79.50
8103;DHT22;4094;49.948;11.574;2024-03-02T05:21:36;9.80;79.50
8103;DHT22;4094;49.948;11.574;2024-03-02T05:24:25;9.80;79.50
8103;DHT22;4094;49.948;11.574;2024-03-02T05:27:16;9.80;79.50
8103;DHT22;4094;49.948;11.574;2024-03-02T05:30:08;9.80;79.50
8103;DHT22;4094;49.948;11.574;2024-03-02T05:32:57;9.80;79.60
8103;DHT22;4094;49.948;11.574;2024-03-02T05:35:46;9.80;79.50
8103;DHT22;4094;49.948;11.574;2024-03-02T05:38:37;9.80;79.40
8103;DHT22;4094;49.948;11.574;2024-03-02T05:41:26;9.80;79.40
8103;DHT22;4094;49.948;11.574;2024-03-02T05:44:16;9.80;79.40
8103;DHT22;4094;49.948;11.574;2024-03-02T05:47:07;9.80;79.40
8103;DHT22;4094;49.948;11.574;2024-03-02T05:49:56;9.70;79.40
8103;DHT22;4094;49.948;11.574;2024-03-02T05:52:45;9.80;79.40
8103;DHT22;4094;49.948;11.574;2024-03-02T05:55:35;9.70;79.50
8103;DHT22;4094;49.948;11.574;2024-03-02T05:58:24;9.80;79.60
8103;DHT22;4094;49.948;11.574;2024-03-02T06:01:25;9.70;79.50
8103;DHT22;4094;49.948;11.574;2024-03-02T06:04:18;9.70;79.70
8103;DHT22;4094;49.948;11.574;2024-03-02T06:07:07;9.70;79.70
8103;DHT22;4094;49.948;11.574;2024-03-02T06:09:56;9.70;79.70
8103;DHT22;4094;49.948;11.574;2024-03-02T06:12:46;9.70;79.70
8103;DHT22;4094;49.948;11.574;2024-03-02T06:15:35;9.70;80.50
8103;DHT22;4094;49.948;11.574;2024-03-02T06:18:24;9.70;79.80
8103;DHT22;4094;49.948;11.574;2024-03-02T06:21:15;9.70;80.50
8103;DHT22;4094;49.948;11.574;2024-03-02T06:24:05;9.70;79.80
8103;DHT22;4094;49.948;11.574;2024-03-02T06:26:54;9.70;79.80
8103;DHT22;4094;49.948;11.574;2024-03-02T06:29:43;9.70;79.90
8103;DHT22;4094;49.948;11.574;2024-03-02T06:32:33;9.70;80.00
8103;DHT22;4094;49.948;11.574;2024-03-02T06:35:23;9.70;79.90
8103;DHT22;4094;49.948;11.574;2024-03-02T06:38:14;9.70;79.90
8103;DHT22;4094;49.948;11.574;2024-03-02T06:41:03;9.80;80.00
8103;DHT22;4094;49.948;11.574;2024-03-02T06:43:52;9.80;80.00
8103;DHT22;4094;49.948;11.574;2024-03-02T06:46:47;9.80;80.10
8103;DHT22;4094;49.948;11.574;2024-03-02T06:49:36;9.80;80.10
8103;DHT22;4094;49.948;11.574;2024-03-02T06:52:26;9.90;80.10
8103;DHT22;4094;49.948;11.574;2024-03-02T06:55:16;9.90;80.10
8103;DHT22;4094;49.948;11.574;2024-03-02T06:58:05;9.90;80.10
8103;DHT22;4094;49.948;11.574;2024-03-02T07:00:55;10.00;80.10
8103;DHT22;4094;49.948;11.574;2024-03-02T07:03:44;10.00;80.10
8103;DHT22;4094;49.948;11.574;2024-03-02T07:06:33;10.10;80.90
8103;DHT22;4094;49.948;11.574;2024-03-02T07:09:22;10.10;80.10
8103;DHT22;4094;49.948;11.574;2024-03-02T07:12:13;10.10;80.10
8103;DHT22;4094;49.948;11.574;2024-03-02T07:15:02;10.10;80.10
8103;DHT22;4094;49.948;11.574;2024-03-02T07:18:17;10.20;80.00
8103;DHT22;4094;49.948;11.574;2024-03-02T07:21:06;10.20;79.90
8103;DHT22;4094;49.948;11.574;2024-03-02T07:23:55;10.20;79.90
8103;DHT22;4094;49.948;11.574;2024-03-02T07:26:45;10.30;80.00
8103;DHT22;4094;49.948;11.574;2024-03-02T07:29:38;10.30;80.10
8103;DHT22;4094;49.948;11.574;2024-03-02T07:32:28;10.40;80.10
8103;DHT22;4094;49.948;11.574;2024-03-02T07:35:17;10.40;80.00
8103;DHT22;4094;49.948;11.574;2024-03-02T07:38:07;10.50;80.70
8103;DHT22;4094;49.948;11.574;2024-03-02T07:40:56;10.50;79.80
8103;DHT22;4094;49.948;11.574;2024-03-02T07:43:45;10.50;79.80
8103;DHT22;4094;49.948;11.574;2024-03-02T07:46:36;10.60;79.80
8103;DHT22;4094;49.948;11.574;2024-03-02T07:49:25;10.70;79.60
8103;DHT22;4094;49.948;11.574;2024-03-02T07:52:14;10.70;79.50
8103;DHT22;4094;49.948;11.574;2024-03-02T07:55:04;10.70;79.40
8103;DHT22;4094;49.948;11.574;2024-03-02T07:57:53;10.70;79.40
8103;DHT22;4094;49.948;11.574;2024-03-02T08:00:42;10.70;79.50
8103;DHT22;4094;49.948;11.574;2024-03-02T08:03:33;10.70;79.50
8103;DHT22;4094;49.948;11.574;2024-03-02T08:06:23;10.80;79.50
8103;DHT22;4094;49.948;11.574;2024-03-02T08:09:15;10.80;79.50
8103;DHT22;4094;49.948;11.574;2024-03-02T08:12:05;10.80;79.40
8103;DHT22;4094;49.948;11.574;2024-03-02T08:14:54;10.90;79.50
8103;DHT22;4094;49.948;11.574;2024-03-02T08:17:43;10.90;79.50
8103;DHT22;4094;49.948;11.574;2024-03-02T08:20:38;11.00;79.20
8103;DHT22;4094;49.948;11.574;2024-03-02T08:23:27;11.00;79.00
8103;DHT22;4094;49.948;11.574;2024-03-02T08:26:17;11.00;79.10
8103;DHT22;4094;49.948;11.574;2024-03-02T08:29:06;11.00;79.20
8103;DHT22;4094;49.948;11.574;2024-03-02T08:31:55;11.20;78.90
8103;DHT22;4094;49.948;11.574;2024-03-02T08:34:44;11.20;78.80
8103;DHT22;4094;49.948;11.574;2024-03-02T08:37:35;11.30;78.80
8103;DHT22;4094;49.948;11.574;2024-03-02T08:40:26;11.30;78.90
8103;DHT22;4094;49.948;11.574;2024-03-02T08:43:15;11.40;79.10
8103;DHT22;4094;49.948;11.574;2024-03-02T08:46:04;11.40;78.80
8103;DHT22;4094;49.948;11.574;2024-03-02T08:48:54;11.60;78.50
8103;DHT22;4094;49.948;11.574;2024-03-02T08:51:43;11.70;78.30
8103;DHT22;4094;49.948;11.574;2024-03-02T08:54:34;11.80;77.80
8103;DHT22;4094;49.948;11.574;2024-03-02T08:57:24;11.90;77.00
8103;DHT22;4094;49.948;11.574;2024-03-02T09:00:13;11.90;76.50
8103;DHT22;4094;49.948;11.574;2024-03-02T09:03:03;11.90;76.40
8103;DHT22;4094;49.948;11.574;2024-03-02T09:05:52;11.90;76.30
8103;DHT22;4094;49.948;11.574;2024-03-02T09:08:41;11.80;76.00
8103;DHT22;4094;49.948;11.574;2024-03-02T09:11:32;11.70;76.10
8103;DHT22;4094;49.948;11.574;2024-03-02T09:14:21;11.70;76.70
8103;DHT22;4094;49.948;11.574;2024-03-02T09:17:11;11.70;77.10
8103;DHT22;4094;49.948;11.574;2024-03-02T09:20:00;11.80;77.20
8103;DHT22;4094;49.948;11.574;2024-03-02T09:22:49;11.80;77.30
8103;DHT22;4094;49.948;11.574;2024-03-02T09:25:38;12.00;77.50
8103;DHT22;4094;49.948;11.574;2024-03-02T09:28:29;12.10;77.30
8103;DHT22;4094;49.948;11.574;2024-03-02T09:31:18;12.20;76.30
8103;DHT22;4094;49.948;11.574;2024-03-02T09:34:07;12.40;76.70
8103;DHT22;4094;49.948;11.574;2024-03-02T09:36:56;12.60;76.70
8103;DHT22;4094;49.948;11.574;2024-03-02T09:39:45;12.70;76.10
8103;DHT22;4094;49.948;11.574;2024-03-02T09:42:35;12.80;75.10
8103;DHT22;4094;49.948;11.574;2024-03-02T09:45:25;12.90;75.00
8103;DHT22;4094;49.948;11.574;2024-03-02T09:48:15;12.90;74.90
8103;DHT22;4094;49.948;11.574;2024-03-02T09:51:07;13.00;74.60
8103;DHT22;4094;49.948;11.574;2024-03-02T09:54:01;13.10;74.90
8103;DHT22;4094;49.948;11.574;2024-03-02T09:57:05;13.30;74.70
8103;DHT22;4094;49.948;11.574;2024-03-02T09:59:54;13.50;74.20
8103;DHT22;4094;49.948;11.574;2024-03-02T10:02:44;13.60;74.40
8103;DHT22;4094;49.948;11.574;2024-03-02T10:05:36;13.80;73.70
8103;DHT22;4094;49.948;11.574;2024-03-02T10:08:26;13.90;73.30
8103;DHT22;4094;49.948;11.574;2024-03-02T10:11:27;14.00;73.20
8103;DHT22;4094;49.948;11.574;2024-03-02T10:14:17;14.10;72.50
8103;DHT22;4094;49.948;11.574;2024-03-02T10:17:07;14.20;72.10
8103;DHT22;4094;49.948;11.574;2024-03-02T10:19:58;14.30;70.70
8103;DHT22;4094;49.948;11.574;2024-03-02T10:22:47;14.20;69.70
8103;DHT22;4094;49.948;11.574;2024-03-02T10:25:37;14.20;69.30
8103;DHT22;4094;49.948;11.574;2024-03-02T10:28:46;14.20;69.50
8103;DHT22;4094;49.948;11.574;2024-03-02T10:31:37;14.20;69.70
8103;DHT22;4094;49.948;11.574;2024-03-02T10:34:26;14.10;69.40
8103;DHT22;4094;49.948;11.574;2024-03-02T10:37:17;14.20;70.10
8103;DHT22;4094;49.948;11.574;2024-03-02T10:40:07;14.40;71.10
8103;DHT22;4094;49.948;11.574;2024-03-02T10:43:01;14.70;72.20
8103;DHT22;4094;49.948;11.574;2024-03-02T10:45:54;15.20;69.50
8103;DHT22;4094;49.948;11.574;2024-03-02T10:48:46;15.50;67.60
8103;DHT22;4094;49.948;11.574;2024-03-02T10:51:35;15.70;66.70
8103;DHT22;4094;49.948;11.574;2024-03-02T10:54:27;15.70;65.50
8103;DHT22;4094;49.948;11.574;2024-03-02T10:57:21;15.60;65.00
8103;DHT22;4094;49.948;11.574;2024-03-02T11:00:12;15.50;63.80
8103;DHT22;4094;49.948;11.574;2024-03-02T11:03:05;15.30;64.90
8103;DHT22;4094;49.948;11.574;2024-03-02T11:05:58;15.30;65.70
8103;DHT22;4094;49.948;11.574;2024-03-02T11:08:48;15.30;65.90
8103;DHT22;4094;49.948;11.574;2024-03-02T11:11:42;15.40;66.00
8103;DHT22;4094;49.948;11.574;2024-03-02T11:14:32;15.50;65.40
8103;DHT22;4094;49.948;11.574;2024-03-02T11:17:23;15.40;63.70
8103;DHT22;4094;49.948;11.574;2024-03-02T11:20:13;15.30;64.30
8103;DHT22;4094;49.948;11.574;2024-03-02T11:23:08;15.20;64.40
8103;DHT22;4094;49.948;11.574;2024-03-02T11:26:16;15.00;64.70
8103;DHT22;4094;49.948;11.574;2024-03-02T11:29:08;14.90;64.70
8103;DHT22;4094;49.948;11.574;2024-03-02T11:31:58;14.80;64.20
8103;DHT22;4094;49.948;11.574;2024-03-02T11:34:49;14.50;64.40
8103;DHT22;4094;49.948;11.574;2024-03-02T11:37:38;14.40;65.30
8103;DHT22;4094;49.948;11.574;2024-03-02T11:40:28;14.30;65.80
8103;DHT22;4094;49.948;11.574;2024-03-02T11:43:17;14.40;67.40
8103;DHT22;4094;49.948;11.574;2024-03-02T11:46:07;14.70;66.70
8103;DHT22;4094;49.948;11.574;2024-03-02T11:48:57;15.00;66.30
8103;DHT22;4094;49.948;11.574;2024-03-02T11:52:00;15.20;65.00
8103;DHT22;4094;49.948;11.574;2024-03-02T11:54:50;15.30;65.10
8103;DHT22;4094;49.948;11.574;2024-03-02T11:57:39;15.40;65.00
8103;DHT22;4094;49.948;11.574;2024-03-02T12:00:29;15.50;65.50
8103;DHT22;4094;49.948;11.574;2024-03-02T12:03:21;15.60;64.50
8103;DHT22;4094;49.948;11.574;2024-03-02T12:06:11;15.70;63.90
8103;DHT22;4094;49.948;11.574;2024-03-02T12:09:02;15.70;63.90
8103;DHT22;4094;49.948;11.574;2024-03-02T12:12:02;15.70;64.30
8103;DHT22;4094;49.948;11.574;2024-03-02T12:14:53;15.80;64.40
8103;DHT22;4094;49.948;11.574;2024-03-02T12:17:46;16.00;64.10
8103;DHT22;4094;49.948;11.574;2024-03-02T12:20:37;16.20;64.70
8103;DHT22;4094;49.948;11.574;2024-03-02T12:23:26;16.60;65.40
8103;DHT22;4094;49.948;11.574;2024-03-02T12:26:16;17.10;65.00
8103;DHT22;4094;49.948;11.574;2024-03-02T12:29:05;17.80;63.00
8103;DHT22;4094;49.948;11.574;2024-03-02T12:31:54;18.40;62.60
8103;DHT22;4094;49.948;11.574;2024-03-02T12:34:46;19.00;60.60
8103;DHT22;4094;49.948;11.574;2024-03-02T12:37:43;19.60;58.60
8103;DHT22;4094;49.948;11.574;2024-03-02T12:40:32;20.10;58.00
8103;DHT22;4094;49.948;11.574;2024-03-02T12:43:22;20.70;57.80
8103;DHT22;4094;49.948;11.574;2024-03-02T12:46:12;21.30;56.90
8103;DHT22;4094;49.948;11.574;2024-03-02T12:49:08;21.80;54.50
8103;DHT22;4094;49.948;11.574;2024-03-02T12:51:59;22.00;53.70
8103;DHT22;4094;49.948;11.574;2024-03-02T12:54:50;22.20;53.00
8103;DHT22;4094;49.948;11.574;2024-03-02T12:57:40;22.10;51.50
8103;DHT22;4094;49.948;11.574;2024-03-02T13:00:33;21.80;51.30
8103;DHT22;4094;49.948;11.574;2024-03-02T13:03:23;21.40;51.10
8103;DHT22;4094;49.948;11.574;2024-03-02T13:06:12;20.70;51.10
8103;DHT22;4094;49.948;11.574;2024-03-02T13:09:01;20.10;51.70
8103;DHT22;4094;49.948;11.574;2024-03-02T13:11:54;19.50;52.70
8103;DHT22;4094;49.948;11.574;2024-03-02T13:14:47;19.10;53.60
8103;DHT22;4094;49.948;11.574;2024-03-02T13:17:36;18.80;53.90
8103;DHT22;4094;49.948;11.574;2024-03-02T13:20:30;18.40;53.80
8103;DHT22;4094;49.948;11.574;2024-03-02T13:23:20;18.00;54.20
8103;DHT22;4094;49.948;11.574;2024-03-02T13:26:09;17.70;54.70
8103;DHT22;4094;49.948;11.574;2024-03-02T13:29:01;17.30;55.20
8103;DHT22;4094;49.948;11.574;2024-03-02T13:31:50;16.90;55.50
8103;DHT22;4094;49.948;11.574;2024-03-02T13:34:40;16.60;56.10
8103;DHT22;4094;49.948;11.574;2024-03-02T13:37:29;16.30;56.80
8103;DHT22;4094;49.948;11.574;2024-03-02T13:40:19;16.10;57.40
8103;DHT22;4094;49.948;11.574;2024-03-02T13:43:08;16.00;57.50
8103;DHT22;4094;49.948;11.574;2024-03-02T13:46:00;15.80;57.70
8103;DHT22;4094;49.948;11.574;2024-03-02T13:48:51;15.70;57.90
8103;DHT22;4094;49.948;11.574;2024-03-02T13:51:45;15.50;58.10
8103;DHT22;4094;49.948;11.574;2024-03-02T13:54:37;15.30;58.40
8103;DHT22;4094;49.948;11.574;2024-03-02T13:57:26;15.10;58.80
8103;DHT22;4094;49.948;11.574;2024-03-02T14:00:16;15.00;59.20
8103;DHT22;4094;49.948;11.574;2024-03-02T14:03:07;14.90;59.50
8103;DHT22;4094;49.948;11.574;2024-03-02T14:05:56;14.80;59.70
8103;DHT22;4094;49.948;11.574;2024-03-02T14:08:46;14.80;59.80
8103;DHT22;4094;49.948;11.574;2024-03-02T14:11:36;14.70;60.00
8103;DHT22;4094;49.948;11.574;2024-03-02T14:14:25;14.70;60.10
8103;DHT22;4094;49.948;11.574;2024-03-02T14:17:14;14.60;60.10
8103;DHT22;4094;49.948;11.574;2024-03-02T14:20:06;14.50;60.10
8103;DHT22;4094;49.948;11.574;2024-03-02T14:22:55;14.40;60.40
8103;DHT22;4094;49.948;11.574;2024-03-02T14:25:45;14.30;60.60
8103;DHT22;4094;49.948;11.574;2024-03-02T14:28:34;14.20;61.00
8103;DHT22;4094;49.948;11.574;2024-03-02T14:31:37;14.10;61.60
8103;DHT22;4094;49.948;11.574;2024-03-02T14:34:27;14.00;61.80
8103;DHT22;4094;49.948;11.574;2024-03-02T14:37:18;14.00;62.40
8103;DHT22;4094;49.948;11.574;2024-03-02T14:40:08;13.90;62.50
8103;DHT22;4094;49.948;11.574;2024-03-02T14:42:57;13.90;62.60
8103;DHT22;4094;49.948;11.574;2024-03-02T14:45:47;13.80;62.70
8103;DHT22;4094;49.948;11.574;2024-03-02T14:48:36;13.80;62.80
8103;DHT22;4094;49.948;11.574;2024-03-02T14:51:26;13.80;63.00
8103;DHT22;4094;49.948;11.574;2024-03-02T14:54:17;13.80;63.30
8103;DHT22;4094;49.948;11.574;2024-03-02T14:57:06;13.70;63.30
8103;DHT22;4094;49.948;11.574;2024-03-02T14:59:56;13.60;64.10
8103;DHT22;4094;49.948;11.574;2024-03-02T15:02:45;13.50;63.50
8103;DHT22;4094;49.948;11.574;2024-03-02T15:05:35;13.50;63.80
8103;DHT22;4094;49.948;11.574;2024-03-02T15:08:24;13.40;64.00
8103;DHT22;4094;49.948;11.574;2024-03-02T15:11:15;13.40;64.10
8103;DHT22;4094;49.948;11.574;2024-03-02T15:14:04;13.40;64.40
8103;DHT22;4094;49.948;11.574;2024-03-02T15:16:53;13.40;64.50
8103;DHT22;4094;49.948;11.574;2024-03-02T15:19:44;13.40;64.60
8103;DHT22;4094;49.948;11.574;2024-03-02T15:22:33;13.50;64.90
8103;DHT22;4094;49.948;11.574;2024-03-02T15:25:22;13.50;65.00
8103;DHT22;4094;49.948;11.574;2024-03-02T15:28:13;13.40;64.80
8103;DHT22;4094;49.948;11.574;2024-03-02T15:31:02;13.50;64.80
8103;DHT22;4094;49.948;11.574;2024-03-02T15:33:52;13.50;64.90
8103;DHT22;4094;49.948;11.574;2024-03-02T15:36:43;13.40;64.80
8103;DHT22;4094;49.948;11.574;2024-03-02T15:39:33;13.50;64.80
8103;DHT22;4094;49.948;11.574;2024-03-02T15:42:22;13.50;64.80
8103;DHT22;4094;49.948;11.574;2024-03-02T15:45:13;13.50;64.80
8103;DHT22;4094;49.948;11.574;2024-03-02T15:48:03;13.50;64.80
8103;DHT22;4094;49.948;11.574;2024-03-02T15:50:52;13.50;64.80
8103;DHT22;4094;49.948;11.574;2024-03-02T15:53:41;13.50;64.80
8103;DHT22;4094;49.948;11.574;2024-03-02T15:56:30;13.50;64.80
8103;DHT22;4094;49.948;11.574;2024-03-02T15:59:19;13.50;64.80
8103;DHT22;4094;49.948;11.574;2024-03-02T16:02:10;13.60;64.80
8103;DHT22;4094;49.948;11.574;2024-03-02T16:04:59;13.60;64.80
8103;DHT22;4094;49.948;11.574;2024-03-02T16:07:48;13.50;64.80
8103;DHT22;4094;49.948;11.574;2024-03-02T16:10:40;13.50;64.80
8103;DHT22;4094;49.948;11.574;2024-03-02T16:13:30;13.50;64.80
8103;DHT22;4094;49.948;11.574;2024-03-02T16:16:20;13.50;65.80
8103;DHT22;4094;49.948;11.574;2024-03-02T16:19:11;13.50;65.10
8103;DHT22;4094;49.948;11.574;2024-03-02T16:22:12;13.50;65.20
8103;DHT22;4094;49.948;11.574;2024-03-02T16:25:01;13.50;65.20
8103;DHT22;4094;49.948;11.574;2024-03-02T16:27:51;13.50;65.10
8103;DHT22;4094;49.948;11.574;2024-03-02T16:30:40;13.50;65.20
8103;DHT22;4094;49.948;11.574;2024-03-02T16:33:30;13.50;65.30
8103;DHT22;4094;49.948;11.574;2024-03-02T16:36:20;13.50;65.20
8103;DHT22;4094;49.948;11.574;2024-03-02T16:39:11;13.50;65.30
8103;DHT22;4094;49.948;11.574;2024-03-02T16:42:00;13.50;65.40
8103;DHT22;4094;49.948;11.574;2024-03-02T16:44:50;13.50;65.40
8103;DHT22;4094;49.948;11.574;2024-03-02T16:47:41;13.40;65.40
8103;DHT22;4094;49.948;11.574;2024-03-02T16:50:31;13.40;65.50
8103;DHT22;4094;49.948;11.574;2024-03-02T16:53:21;13.40;65.50
8103;DHT22;4094;49.948;11.574;2024-03-02T16:56:10;13.30;65.70
8103;DHT22;4094;49.948;11.574;2024-03-02T16:59:00;13.30;65.70
8103;DHT22;4094;49.948;11.574;2024-03-02T17:01:49;13.30;66.60
8103;DHT22;4094;49.948;11.574;2024-03-02T17:04:38;13.30;65.80
8103;DHT22;4094;49.948;11.574;2024-03-02T17:07:28;13.20;65.90
8103;DHT22;4094;49.948;11.574;2024-03-02T17:10:19;13.20;65.80
8103;DHT22;4094;49.948;11.574;2024-03-02T17:13:08;13.10;65.90
8103;DHT22;4094;49.948;11.574;2024-03-02T17:15:57;13.10;66.00
8103;DHT22;4094;49.948;11.574;2024-03-02T17:18:47;13.10;65.90
8103;DHT22;4094;49.948;11.574;2024-03-02T17:21:36;13.10;66.00
8103;DHT22;4094;49.948;11.574;2024-03-02T17:24:25;13.00;66.00
8103;DHT22;4094;49.948;11.574;2024-03-02T17:27:16;13.00;66.10
8103;DHT22;4094;49.948;11.574;2024-03-02T17:30:07;13.00;66.20
8103;DHT22;4094;49.948;11.574;2024-03-02T17:32:56;13.00;66.20
8103;DHT22;4094;49.948;11.574;2024-03-02T17:35:45;12.90;66.20
8103;DHT22;4094;49.948;11.574;2024-03-02T17:38:35;12.90;66.30
8103;DHT22;4094;49.948;11.574;2024-03-02T17:41:24;12.90;66.50
8103;DHT22;4094;49.948;11.574;2024-03-02T17:44:14;12.80;66.60
8103;DHT22;4094;49.948;11.574;2024-03-02T17:47:04;12.80;66.70
8103;DHT22;4094;49.948;11.574;2024-03-02T17:49:53;12.70;66.80
8103;DHT22;4094;49.948;11.574;2024-03-02T17:52:42;12.60;66.90
8103;DHT22;4094;49.948;11.574;2024-03-02T17:55:31;12.60;67.10
8103;DHT22;4094;49.948;11.574;2024-03-02T17:58:20;12.50;67.00
8103;DHT22;4094;49.948;11.574;2024-03-02T18:01:15;12.50;67.20
8103;DHT22;4094;49.948;11.574;2024-03-02T18:04:04;12.50;67.30
8103;DHT22;4094;49.948;11.574;2024-03-02T18:06:57;12.40;67.30
8103;DHT22;4094;49.948;11.574;2024-03-02T18:09:47;12.40;67.30
8103;DHT22;4094;49.948;11.574;2024-03-02T18:12:36;12.40;67.40
8103;DHT22;4094;49.948;11.574;2024-03-02T18:15:27;12.30;67.40
8103;DHT22;4094;49.948;11.574;2024-03-02T18:18:18;12.30;67.50
8103;DHT22;4094;49.948;11.574;2024-03-02T18:21:07;12.20;67.60
8103;DHT22;4094;49.948;11.574;2024-03-02T18:23:57;12.20;67.60